Time;durP1;ratioP1;P1;durP2;ratioP2;P2;SDS_P1;SDS_P2;PMS_P1;PMS_P2;Temp;Humidity;BMP_temperature;BMP_pressure;BME280_temperature;BME280_humidity;BME280_pressure;Samples;Min_cycle;Max_cycle;Signal;HPM_P1;HPM_P2
2022/05/17 00:01:00;;;;;;;10.73;6.93;;;;;14.60;101444.00;;;;4930053;29;20229;-71
2022/05/17 00:03:47;;;;;;;9.73;6.47;;;;;14.40;101440.00;;;;4929660;29;20280;-71
2022/05/17 00:06:33;;;;;;;12.50;6.33;;;;;14.30;101441.00;;;;4928087;29;20870;-70
2022/05/17 00:09:20;;;;;;;10.87;6.57;;;;;14.40;101444.00;;;;4928734;29;20220;-70
2022/05/17 00:12:09;;;;;;;13.63;6.07;;;;;14.30;101442.00;;;;4929703;29;20739;-70
2022/05/17 00:14:55;;;;;;;9.37;6.30;;;;;14.30;101427.00;;;;4930014;29;20236;-72
2022/05/17 00:17:42;;;;;;;10.27;6.20;;;;;14.40;101437.00;;;;4929020;29;20237;-72
2022/05/17 00:20:28;;;;;;;10.03;6.53;;;;;14.30;101441.00;;;;4929712;29;20217;-70
2022/05/17 00:23:16;;;;;;;11.57;5.77;;;;;14.30;101430.00;;;;4927513;29;20217;-70
2022/05/17 00:26:02;;;;;;;9.17;5.77;;;;;14.20;101432.00;;;;4929000;29;20288;-69
2022/05/17 00:28:49;;;;;;;11.47;6.70;;;;;14.20;101439.00;;;;4929854;29;20217;-70
2022/05/17 00:31:36;;;;;;;8.83;6.30;;;;;14.30;101435.00;;;;4929632;29;20224;-70
2022/05/17 00:34:23;;;;;;;9.20;6.10;;;;;14.30;101444.00;;;;4928594;29;20268;-70
2022/05/17 00:37:09;;;;;;;12.33;6.37;;;;;14.20;101430.00;;;;4926540;29;20217;-70
2022/05/17 00:39:55;;;;;;;8.70;5.63;;;;;14.10;101439.00;;;;4929360;29;20308;-70
2022/05/17 00:42:42;;;;;;;10.07;6.63;;;;;14.00;101430.00;;;;4929281;29;20333;-69
2022/05/17 00:45:30;;;;;;;10.13;6.37;;;;;14.20;101429.00;;;;4929140;29;20737;-71
2022/05/17 00:48:19;;;;;;;10.23;6.30;;;;;14.10;101427.00;;;;4929051;29;20224;-70
2022/05/17 00:51:05;;;;;;;11.10;6.83;;;;;14.00;101436.00;;;;4927399;29;20204;-70
2022/05/17 00:53:53;;;;;;;10.60;6.57;;;;;14.00;101421.00;;;;4926719;29;20240;-69
2022/05/17 00:56:43;;;;;;;10.70;7.00;;;;;14.00;101427.00;;;;4927383;29;20221;-70
2022/05/17 00:59:30;;;;;;;11.20;7.87;;;;;13.90;101433.00;;;;4929037;29;20295;-70
2022/05/17 01:02:18;;;;;;;9.23;6.07;;;;;13.90;101436.00;;;;4928971;29;20710;-70
2022/05/17 01:05:05;;;;;;;10.30;6.47;;;;;13.90;101431.00;;;;4928334;29;21471;-72
2022/05/17 01:07:55;;;;;;;11.53;6.83;;;;;13.90;101435.00;;;;4926784;29;20213;-70
2022/05/17 01:10:41;;;;;;;10.73;7.10;;;;;13.90;101437.00;;;;4929032;29;20358;-71
2022/05/17 01:16:32;;;;;;;10.13;6.63;;;;;13.80;101431.00;;;;4924660;29;20200;-71
2022/05/17 01:19:20;;;;;;;12.10;6.97;;;;;13.70;101437.00;;;;4928591;29;20235;-71
2022/05/17 01:22:07;;;;;;;10.43;6.20;;;;;13.70;101433.00;;;;4928964;29;20205;-71
2022/05/17 01:24:53;;;;;;;10.07;6.87;;;;;13.70;101441.00;;;;4926765;29;20594;-70
2022/05/17 01:27:44;;;;;;;15.03;6.73;;;;;13.70;101431.00;;;;4929075;29;20296;-71
2022/05/17 01:30:32;;;;;;;10.87;6.10;;;;;13.60;101420.00;;;;4928478;29;20261;-70
2022/05/17 01:33:21;;;;;;;11.57;6.37;;;;;13.60;101425.00;;;;4928461;29;20212;-70
2022/05/17 01:36:10;;;;;;;10.33;6.60;;;;;13.60;101426.00;;;;4928661;29;20260;-70
2022/05/17 01:38:58;;;;;;;9.97;6.13;;;;;13.60;101419.00;;;;4928674;29;20228;-70
2022/05/17 01:41:44;;;;;;;11.67;6.47;;;;;13.50;101419.00;;;;4928609;29;20208;-70
2022/05/17 01:44:31;;;;;;;13.37;7.23;;;;;13.50;101424.00;;;;4925983;29;20229;-69
2022/05/17 01:47:17;;;;;;;12.63;6.60;;;;;13.50;101415.00;;;;4926620;29;20217;-69
2022/05/17 01:50:05;;;;;;;10.37;6.43;;;;;13.50;101418.00;;;;4928669;29;20216;-70
2022/05/17 01:52:51;;;;;;;10.57;6.27;;;;;13.50;101404.00;;;;4926369;29;20341;-71
2022/05/17 01:55:39;;;;;;;9.57;6.20;;;;;13.40;101418.00;;;;4926982;29;20228;-70
2022/05/17 01:58:25;;;;;;;11.13;6.43;;;;;13.30;101417.00;;;;4928519;29;20654;-70
2022/05/17 02:01:12;;;;;;;10.40;6.50;;;;;13.40;101417.00;;;;4928442;29;20218;-70
2022/05/17 02:03:58;;;;;;;13.07;7.23;;;;;13.40;101419.00;;;;4926938;29;20224;-71
2022/05/17 02:06:45;;;;;;;10.60;6.77;;;;;13.40;101402.00;;;;4928145;29;20373;-71
2022/05/17 02:09:31;;;;;;;12.57;7.67;;;;;13.50;101411.00;;;;4926139;29;20237;-70
2022/05/17 02:12:19;;;;;;;11.13;6.47;;;;;13.40;101424.00;;;;4928297;29;20208;-70
2022/05/17 02:15:07;;;;;;;10.43;6.57;;;;;13.40;101416.00;;;;4927783;29;20241;-70
2022/05/17 02:17:53;;;;;;;10.10;6.50;;;;;13.40;101407.00;;;;4926454;29;20353;-70
2022/05/17 02:20:40;;;;;;;11.80;7.00;;;;;13.40;101410.00;;;;4927099;29;20292;-70
2022/05/17 02:23:26;;;;;;;11.33;6.50;;;;;13.40;101412.00;;;;4927384;29;20260;-71
2022/05/17 02:26:12;;;;;;;10.80;7.00;;;;;13.30;101418.00;;;;4926073;29;20208;-70
2022/05/17 02:29:00;;;;;;;11.40;6.93;;;;;13.40;101410.00;;;;4927011;29;20220;-70
2022/05/17 02:31:46;;;;;;;11.83;6.77;;;;;13.40;101415.00;;;;4928573;29;20309;-70
2022/05/17 02:34:35;;;;;;;14.33;7.03;;;;;13.40;101419.00;;;;4928159;29;20341;-71
2022/05/17 02:37:21;;;;;;;10.77;6.40;;;;;13.50;101422.00;;;;4927138;29;20217;-69
2022/05/17 02:40:09;;;;;;;12.50;6.90;;;;;13.40;101406.00;;;;4927965;29;20256;-70
2022/05/17 02:42:55;;;;;;;11.23;7.17;;;;;13.50;101421.00;;;;4928029;29;20213;-71
2022/05/17 02:45:43;;;;;;;12.53;7.17;;;;;13.50;101420.00;;;;4927156;29;20229;-71
2022/05/17 02:48:29;;;;;;;10.77;6.77;;;;;13.40;101421.00;;;;4928410;29;20289;-70
2022/05/17 02:51:18;;;;;;;14.53;7.77;;;;;13.40;101430.00;;;;4927884;29;20209;-70
2022/05/17 02:54:06;;;;;;;10.90;7.20;;;;;13.60;101422.00;;;;4926257;29;20236;-72
2022/05/17 02:56:53;;;;;;;12.87;7.43;;;;;13.60;101417.00;;;;4924875;29;20216;-71
2022/05/17 02:59:39;;;;;;;12.67;6.70;;;;;13.60;101426.00;;;;4929147;29;20866;-72
2022/05/17 03:02:27;;;;;;;12.40;6.90;;;;;13.60;101432.00;;;;4931538;29;20365;-70
2022/05/17 03:05:14;;;;;;;10.57;6.93;;;;;13.60;101425.00;;;;4929631;29;20236;-71
2022/05/17 03:08:01;;;;;;;11.77;7.03;;;;;13.40;101435.00;;;;4931680;29;20244;-70
2022/05/17 03:10:47;;;;;;;13.57;6.93;;;;;13.40;101432.00;;;;4931581;29;20209;-70
2022/05/17 03:13:34;;;;;;;12.23;7.30;;;;;13.50;101432.00;;;;4931186;29;20212;-71
2022/05/17 03:16:20;;;;;;;12.47;7.87;;;;;13.40;101430.00;;;;4931059;29;20881;-70
2022/05/17 03:19:08;;;;;;;13.37;7.50;;;;;13.50;101439.00;;;;4930957;29;20217;-71
2022/05/17 03:21:54;;;;;;;12.00;7.43;;;;;13.40;101447.00;;;;4931457;29;20284;-69
2022/05/17 03:24:41;;;;;;;12.87;7.30;;;;;13.30;101448.00;;;;4931030;29;20225;-71
2022/05/17 03:27:47;;;;;;;13.73;7.23;;;;;13.30;101446.00;;;;4930905;29;20284;-71
2022/05/17 03:30:33;;;;;;;11.20;7.17;;;;;13.40;101450.00;;;;4929279;29;20944;-70
2022/05/17 03:33:19;;;;;;;12.20;7.17;;;;;13.40;101450.00;;;;4930698;29;20212;-72
2022/05/17 03:36:09;;;;;;;12.97;7.23;;;;;13.30;101450.00;;;;4930506;29;20687;-72
2022/05/17 03:38:55;;;;;;;11.60;7.47;;;;;13.40;101450.00;;;;4929626;29;20710;-72
2022/05/17 03:41:41;;;;;;;11.00;7.27;;;;;13.40;101439.00;;;;4930005;29;20213;-71
2022/05/17 03:44:28;;;;;;;12.87;7.70;;;;;13.50;101455.00;;;;4930184;29;20224;-74
2022/05/17 03:47:14;;;;;;;11.50;7.27;;;;;13.50;101452.00;;;;4928963;29;20289;-71
2022/05/17 03:50:02;;;;;;;11.40;7.07;;;;;13.50;101461.00;;;;4929993;29;20216;-72
2022/05/17 03:52:49;;;;;;;13.27;7.57;;;;;13.50;101464.00;;;;4930542;29;20318;-74
2022/05/17 03:55:36;;;;;;;11.20;7.10;;;;;13.50;101458.00;;;;4929004;29;20276;-71
2022/05/17 03:58:22;;;;;;;12.23;6.77;;;;;13.50;101467.00;;;;4930765;29;20216;-72
2022/05/17 04:01:08;;;;;;;13.93;6.97;;;;;13.60;101472.00;;;;4930730;29;20734;-71
2022/05/17 04:03:55;;;;;;;11.23;7.17;;;;;13.70;101469.00;;;;4930561;29;20256;-71
2022/05/17 04:06:42;;;;;;;10.57;6.70;;;;;13.80;101467.00;;;;4931129;29;20211;-70
2022/05/17 04:09:29;;;;;;;10.53;6.87;;;;;13.90;101449.00;;;;4930083;29;20301;-71
2022/05/17 04:12:16;;;;;;;12.23;7.03;;;;;13.90;101465.00;;;;4930715;29;20686;-71
2022/05/17 04:15:03;;;;;;;12.93;7.57;;;;;14.00;101461.00;;;;4930591;29;20245;-73
2022/05/17 04:17:50;;;;;;;10.57;6.93;;;;;14.00;101465.00;;;;4930331;29;20220;-71
2022/05/17 04:20:36;;;;;;;10.40;6.43;;;;;14.00;101466.00;;;;4930453;29;20233;-73
2022/05/17 04:23:23;;;;;;;12.43;7.20;;;;;14.10;101458.00;;;;4930387;29;20257;-72
2022/05/17 04:26:12;;;;;;;11.90;6.40;;;;;14.20;101464.00;;;;4929591;29;20213;-72
2022/05/17 04:28:59;;;;;;;13.53;7.23;;;;;14.20;101474.00;;;;4928991;29;20698;-72
2022/05/17 04:31:46;;;;;;;11.67;7.43;;;;;14.40;101467.00;;;;4920289;29;20221;-72
2022/05/17 04:34:33;;;;;;;11.70;6.90;;;;;14.40;101466.00;;;;4925632;29;20280;-72
2022/05/17 04:37:19;;;;;;;13.07;7.87;;;;;14.50;101481.00;;;;4921590;29;20866;-71
2022/05/17 04:40:08;;;;;;;12.43;7.70;;;;;14.60;101476.00;;;;4931084;29;20315;-71
2022/05/17 04:42:57;;;;;;;10.30;6.90;;;;;14.60;101487.00;;;;4924921;29;20222;-70
2022/05/17 04:45:44;;;;;;;14.47;7.63;;;;;14.60;101492.00;;;;4919734;29;20229;-70
2022/05/17 04:48:31;;;;;;;13.50;7.77;;;;;14.60;101485.00;;;;4923651;29;20213;-70
2022/05/17 04:51:17;;;;;;;12.87;7.80;;;;;14.60;101498.00;;;;4930858;29;20277;-70
2022/05/17 04:54:04;;;;;;;11.60;7.27;;;;;14.70;101486.00;;;;4930709;29;20221;-70
2022/05/17 04:56:50;;;;;;;11.13;6.93;;;;;14.80;101495.00;;;;4925703;29;20288;-70
2022/05/17 04:59:43;;;;;;;13.13;7.10;;;;;14.80;101494.00;;;;4924573;29;20272;-70
2022/05/17 05:02:29;;;;;;;12.30;7.63;;;;;14.90;101498.00;;;;4930670;29;20217;-70
2022/05/17 05:05:17;;;;;;;10.97;6.83;;;;;15.00;101505.00;;;;4930759;29;20233;-70
2022/05/17 05:08:04;;;;;;;12.23;7.50;;;;;15.10;101491.00;;;;4930792;29;20227;-70
2022/05/17 05:10:53;;;;;;;14.20;7.83;;;;;15.20;101490.00;;;;4926086;29;20212;-70
2022/05/17 05:13:39;;;;;;;10.13;7.13;;;;;15.30;101491.00;;;;4923759;29;20261;-70
2022/05/17 05:16:27;;;;;;;11.30;7.30;;;;;15.50;101486.00;;;;4922673;29;20214;-71
2022/05/17 05:19:13;;;;;;;12.50;7.43;;;;;15.60;101485.00;;;;4930546;29;20218;-71
2022/05/17 05:21:59;;;;;;;14.47;8.17;;;;;15.70;101492.00;;;;4921857;29;20781;-71
2022/05/17 05:24:46;;;;;;;13.93;7.57;;;;;15.80;101490.00;;;;4921813;29;20236;-71
2022/05/17 05:27:33;;;;;;;14.40;8.03;;;;;15.90;101491.00;;;;4928831;29;20229;-72
2022/05/17 05:30:19;;;;;;;13.73;8.33;;;;;16.00;101499.00;;;;4919334;29;20221;-72
2022/05/17 05:33:07;;;;;;;15.13;8.00;;;;;16.00;101494.00;;;;4927006;29;20296;-72
2022/05/17 05:35:53;;;;;;;15.23;8.37;;;;;16.10;101488.00;;;;4919625;29;20243;-72
2022/05/17 05:38:40;;;;;;;12.10;7.87;;;;;16.10;101498.00;;;;4915786;29;20213;-70
2022/05/17 05:41:26;;;;;;;19.50;9.20;;;;;16.20;101501.00;;;;4929660;29;20230;-71
2022/05/17 05:44:13;;;;;;;15.33;8.57;;;;;16.20;101501.00;;;;4929248;29;20303;-71
2022/05/17 05:46:59;;;;;;;15.73;8.83;;;;;16.30;101497.00;;;;4923291;29;20299;-71
2022/05/17 05:49:47;;;;;;;15.00;8.27;;;;;16.30;101508.00;;;;4930020;29;20762;-71
2022/05/17 05:52:34;;;;;;;16.00;9.40;;;;;16.40;101499.00;;;;4926415;29;20220;-70
2022/05/17 05:55:22;;;;;;;15.17;8.77;;;;;16.40;101500.00;;;;4928360;29;20251;-71
2022/05/17 05:58:10;;;;;;;16.27;9.10;;;;;16.40;101504.00;;;;4929486;29;20293;-71
2022/05/17 06:00:56;;;;;;;15.47;9.23;;;;;16.60;101508.00;;;;4919594;29;20224;-72
2022/05/17 06:03:43;;;;;;;15.90;9.80;;;;;16.70;101505.00;;;;4924702;29;20315;-70
2022/05/17 06:06:31;;;;;;;16.63;9.40;;;;;16.70;101515.00;;;;4926465;29;20210;-71
2022/05/17 06:09:18;;;;;;;15.20;9.20;;;;;16.70;101516.00;;;;4927084;29;20547;-70
2022/05/17 06:12:05;;;;;;;17.87;9.17;;;;;16.90;101511.00;;;;4928386;29;20325;-70
2022/05/17 06:14:51;;;;;;;16.27;9.37;;;;;17.00;101518.00;;;;4925958;29;20252;-71
2022/05/17 06:17:38;;;;;;;14.27;9.17;;;;;17.10;101522.00;;;;4922304;29;20221;-71
2022/05/17 06:20:24;;;;;;;16.60;9.27;;;;;17.10;101520.00;;;;4921510;29;20253;-72
2022/05/17 06:23:12;;;;;;;15.07;8.70;;;;;17.20;101523.00;;;;4927756;29;20645;-70
2022/05/17 06:25:59;;;;;;;18.47;9.57;;;;;17.20;101523.00;;;;4928805;29;20209;-70
2022/05/17 06:28:45;;;;;;;13.37;8.57;;;;;17.30;101529.00;;;;4924756;29;20235;-72
2022/05/17 06:31:31;;;;;;;19.43;9.00;;;;;17.30;101536.00;;;;4929330;29;20212;-71
2022/05/17 06:34:18;;;;;;;21.20;9.73;;;;;17.30;101527.00;;;;4925207;29;20233;-71
2022/05/17 06:37:04;;;;;;;17.20;8.90;;;;;17.30;101533.00;;;;4933737;29;20212;-71
2022/05/17 06:39:52;;;;;;;20.63;10.00;;;;;17.40;101534.00;;;;4933475;29;20208;-70
2022/05/17 06:42:38;;;;;;;18.63;9.63;;;;;17.40;101532.00;;;;4926362;29;20345;-71
2022/05/17 06:45:25;;;;;;;15.77;8.67;;;;;17.50;101536.00;;;;4933269;29;20236;-71
2022/05/17 06:48:11;;;;;;;19.00;9.07;;;;;17.50;101541.00;;;;4933197;29;20217;-71
2022/05/17 06:51:03;;;;;;;14.60;8.63;;;;;17.50;101541.00;;;;4933643;29;20217;-70
2022/05/17 06:53:49;;;;;;;17.10;8.97;;;;;17.50;101533.00;;;;4927696;29;20222;-71
2022/05/17 06:56:37;;;;;;;21.23;9.23;;;;;17.60;101534.00;;;;4930552;29;20209;-75
2022/05/17 06:59:24;;;;;;;16.17;9.00;;;;;17.70;101537.00;;;;4933488;29;20204;-74
2022/05/17 07:02:16;;;;;;;14.57;8.67;;;;;17.80;101533.00;;;;4920113;29;20323;-75
2022/05/17 07:05:03;;;;;;;15.30;8.73;;;;;17.90;101532.00;;;;4927887;29;20252;-73
2022/05/17 07:07:55;;;;;;;16.57;8.33;;;;;17.90;101537.00;;;;4928061;29;20241;-72
2022/05/17 07:13:47;;;;;;;16.73;8.87;;;;;18.10;101545.00;;;;4926936;29;20225;-73
2022/05/17 07:16:34;;;;;;;16.80;8.57;;;;;18.10;101541.00;;;;4914404;29;20209;-72
2022/05/17 07:19:20;;;;;;;16.47;8.83;;;;;18.20;101547.00;;;;4923657;29;20683;-70
2022/05/17 07:22:22;;;;;;;14.43;8.37;;;;;18.30;101543.00;;;;4932465;29;20716;-71
2022/05/17 07:25:09;;;;;;;15.17;7.97;;;;;18.40;101546.00;;;;4932734;29;20355;-72
2022/05/17 07:27:56;;;;;;;15.33;8.50;;;;;18.50;101545.00;;;;4932003;29;20209;-73
2022/05/17 07:30:43;;;;;;;18.47;8.63;;;;;18.70;101554.00;;;;4932774;29;20201;-72
2022/05/17 07:33:29;;;;;;;15.63;8.70;;;;;18.90;101556.00;;;;4926638;29;20586;-72
2022/05/17 07:36:15;;;;;;;24.60;9.60;;;;;19.10;101556.00;;;;4923386;29;20350;-71
2022/05/17 07:39:02;;;;;;;14.13;7.97;;;;;19.20;101553.00;;;;4921005;29;20361;-71
2022/05/17 07:41:49;;;;;;;14.37;7.63;;;;;19.10;101555.00;;;;4932121;29;20237;-72
2022/05/17 07:44:36;;;;;;;17.33;8.63;;;;;19.30;101554.00;;;;4923968;29;20285;-72
2022/05/17 07:47:24;;;;;;;15.37;7.83;;;;;19.30;101570.00;;;;4922564;29;20309;-72
2022/05/17 07:50:11;;;;;;;14.60;8.00;;;;;19.30;101571.00;;;;4921387;29;20582;-72
2022/05/17 07:52:57;;;;;;;13.33;7.30;;;;;19.30;101561.00;;;;4930042;29;20272;-73
2022/05/17 07:55:46;;;;;;;11.40;7.50;;;;;19.50;101565.00;;;;4928427;29;20380;-70
2022/05/17 07:58:32;;;;;;;13.47;7.20;;;;;19.70;101572.00;;;;4923925;29;20213;-70
2022/05/17 08:01:19;;;;;;;13.00;7.33;;;;;19.70;101561.00;;;;4924453;29;20236;-70
2022/05/17 08:04:07;;;;;;;11.60;6.13;;;;;19.80;101565.00;;;;4926409;29;21013;-71
2022/05/17 08:06:54;;;;;;;11.43;5.90;;;;;19.80;101572.00;;;;4926940;29;20216;-72
2022/05/17 08:09:40;;;;;;;8.93;5.77;;;;;19.90;101573.00;;;;4925401;29;20221;-73
2022/05/17 08:12:26;;;;;;;8.37;5.27;;;;;19.90;101572.00;;;;4923916;29;20221;-70
2022/05/17 08:15:13;;;;;;;8.17;4.87;;;;;20.00;101577.00;;;;4930977;29;20590;-72
2022/05/17 08:18:01;;;;;;;11.90;5.13;;;;;20.00;101579.00;;;;4927468;29;20225;-73
2022/05/17 08:20:49;;;;;;;8.93;5.27;;;;;20.10;101573.00;;;;4926415;29;20213;-71
2022/05/17 08:23:35;;;;;;;10.90;5.27;;;;;20.10;101567.00;;;;4931248;29;20284;-72
2022/05/17 08:29:26;;;;;;;7.40;4.77;;;;;20.10;101583.00;;;;4930604;29;20220;-71
2022/05/17 08:35:17;;;;;;;9.80;4.90;;;;;20.20;101563.00;;;;4923388;29;20315;-71
2022/05/17 08:38:06;;;;;;;13.27;5.33;;;;;20.40;101562.00;;;;4931416;29;21064;-71
2022/05/17 08:41:01;;;;;;;10.73;5.10;;;;;20.50;101576.00;;;;4918366;29;20646;-70
2022/05/17 08:43:51;;;;;;;12.10;5.03;;;;;20.40;101578.00;;;;4917343;29;20925;-73
2022/05/17 08:47:05;;;;;;;8.57;4.70;;;;;20.50;101576.00;;;;4927542;29;20599;-73
2022/05/17 08:50:18;;;;;;;9.33;3.70;;;;;20.70;101592.00;;;;4928107;29;20323;-73
2022/05/17 08:53:11;;;;;;;4.73;2.93;;;;;20.70;101581.00;;;;4929749;29;20220;-71
2022/05/17 08:55:58;;;;;;;7.90;3.00;;;;;20.80;101586.00;;;;4930269;29;20691;-72
2022/05/17 08:58:48;;;;;;;6.20;3.10;;;;;20.80;101584.00;;;;4924844;29;20222;-72
2022/05/17 09:01:43;;;;;;;8.60;3.03;;;;;20.60;101583.00;;;;4927871;29;20262;-75
2022/05/17 09:04:55;;;;;;;6.13;2.93;;;;;20.70;101578.00;;;;4931633;29;20240;-73
2022/05/17 09:07:51;;;;;;;6.33;2.87;;;;;20.70;101593.00;;;;4925009;29;20354;-74
2022/05/17 09:10:40;;;;;;;4.80;2.80;;;;;20.80;101595.00;;;;4924511;29;20229;-75
2022/05/17 09:13:31;;;;;;;7.57;2.73;;;;;20.80;101587.00;;;;4930232;29;20221;-72
2022/05/17 09:16:40;;;;;;;6.23;2.77;;;;;20.90;101588.00;;;;4927111;29;20269;-72
2022/05/17 09:19:37;;;;;;;5.27;2.40;;;;;20.80;101602.00;;;;5064354;27;20560;-72
2022/05/17 09:22:24;;;;;;;9.53;3.10;;;;;20.70;101591.00;;;;5064201;28;20221;-73
2022/05/17 09:25:17;;;;;;;4.83;2.87;;;;;20.60;101596.00;;;;5064025;28;20275;-72
2022/05/17 09:28:04;;;;;;;5.40;2.90;;;;;20.70;101588.00;;;;5064318;28;20208;-72
2022/05/17 09:31:09;;;;;;;8.03;3.97;;;;;20.70;101599.00;;;;5064204;28;20215;-72
2022/05/17 09:33:58;;;;;;;5.93;2.80;;;;;20.70;101599.00;;;;5059058;28;20234;-71
2022/05/17 09:36:52;;;;;;;5.10;2.83;;;;;20.70;101604.00;;;;5064030;28;20589;-71
2022/05/17 09:39:39;;;;;;;5.67;2.93;;;;;20.80;101605.00;;;;5064041;28;20265;-73
2022/05/17 09:42:29;;;;;;;6.97;2.87;;;;;20.80;101603.00;;;;5064013;28;20793;-70
2022/05/17 09:45:18;;;;;;;7.23;2.80;;;;;20.80;101603.00;;;;5064245;28;20233;-72
2022/05/17 09:48:07;;;;;;;5.30;2.80;;;;;20.90;101612.00;;;;5064125;28;20740;-72
2022/05/17 09:53:59;;;;;;;9.50;3.03;;;;;20.90;101605.00;;;;5058734;28;20808;-71
2022/05/17 09:56:45;;;;;;;6.37;2.70;;;;;20.90;101607.00;;;;5057374;28;20288;-72
2022/05/17 09:59:31;;;;;;;6.20;2.93;;;;;20.80;101613.00;;;;5063202;28;20279;-71
2022/05/17 10:02:40;;;;;;;7.37;2.70;;;;;20.70;101606.00;;;;5063476;28;20246;-71
2022/05/17 10:05:30;;;;;;;7.43;3.03;;;;;20.70;101613.00;;;;5063278;28;20238;-70
2022/05/17 10:08:33;;;;;;;4.97;2.77;;;;;20.70;101607.00;;;;5063446;28;20214;-73
2022/05/17 10:11:24;;;;;;;5.57;2.73;;;;;20.60;101616.00;;;;5063288;28;20228;-71
2022/05/17 10:14:20;;;;;;;6.60;2.80;;;;;20.50;101612.00;;;;5062912;28;20577;-70
2022/05/17 10:17:14;;;;;;;5.70;2.53;;;;;20.50;101619.00;;;;5063346;28;20211;-72
2022/05/17 10:20:05;;;;;;;6.43;2.57;;;;;20.50;101621.00;;;;5058338;28;20201;-72
2022/05/17 10:22:58;;;;;;;5.97;2.70;;;;;20.50;101629.00;;;;5057131;28;20215;-70
2022/05/17 10:25:48;;;;;;;9.93;3.27;;;;;20.50;101613.00;;;;5058943;28;20237;-70
2022/05/17 10:28:42;;;;;;;5.60;2.57;;;;;20.30;101621.00;;;;5062311;28;20206;-72
2022/05/17 10:31:34;;;;;;;4.20;2.50;;;;;20.30;101622.00;;;;5038152;28;20231;-72
2022/05/17 10:34:33;;;;;;;6.07;3.27;;;;;20.20;101616.00;;;;5037531;28;20601;-72
2022/05/17 10:37:21;;;;;;;9.03;3.00;;;;;20.20;101624.00;;;;5030046;28;20581;-72
2022/05/17 10:40:10;;;;;;;4.97;2.80;;;;;20.30;101619.00;;;;5029514;28;20240;-71
2022/05/17 10:42:57;;;;;;;8.13;2.90;;;;;20.40;101623.00;;;;5039800;28;20760;-72
2022/05/17 10:45:49;;;;;;;6.73;3.30;;;;;20.50;101593.00;;;;5037554;28;20260;-73
2022/05/17 10:48:43;;;;;;;6.30;3.50;;;;;20.50;101613.00;;;;5029733;28;20211;-73
2022/05/17 10:51:36;;;;;;;8.50;4.03;;;;;20.60;101617.00;;;;5035277;28;20229;-73
2022/05/17 10:54:39;;;;;;;10.77;4.20;;;;;20.60;101607.00;;;;5032937;28;20230;-73
2022/05/17 10:57:34;;;;;;;7.63;3.83;;;;;20.60;101607.00;;;;5036706;28;20707;-72
2022/05/17 11:00:27;;;;;;;6.93;3.87;;;;;20.70;101599.00;;;;5037220;28;20572;-72
2022/05/17 11:03:46;;;;;;;5.73;4.10;;;;;20.60;101601.00;;;;5035623;28;20750;-72
2022/05/17 11:06:39;;;;;;;9.30;3.87;;;;;20.80;101595.00;;;;5034815;28;20207;-72
2022/05/17 11:09:33;;;;;;;6.93;3.60;;;;;21.00;101604.00;;;;5032254;28;20583;-72
2022/05/17 11:12:23;;;;;;;7.93;4.20;;;;;21.20;101594.00;;;;5032254;28;20639;-72
2022/05/17 11:15:15;;;;;;;5.43;3.97;;;;;21.40;101593.00;;;;5033950;28;20234;-73
2022/05/17 11:18:13;;;;;;;7.30;3.83;;;;;21.70;101581.00;;;;5035883;28;20286;-72
2022/05/17 11:21:07;;;;;;;13.27;4.23;;;;;21.80;101575.00;;;;5031458;28;20424;-72
2022/05/17 11:23:56;;;;;;;9.33;3.87;;;;;21.90;101567.00;;;;5030917;28;20215;-72
2022/05/17 11:27:04;;;;;;;9.87;3.73;;;;;22.10;101575.00;;;;5055457;28;20239;-74
2022/05/17 11:30:20;;;;;;;10.47;3.43;;;;;22.30;101578.00;;;;5065169;28;20199;-74
2022/05/17 11:33:11;;;;;;;7.57;4.10;;;;;22.50;101571.00;;;;5069971;28;20208;-73
2022/05/17 11:36:01;;;;;;;4.83;3.60;;;;;22.60;101573.00;;;;5069964;28;20239;-72
2022/05/17 11:38:50;;;;;;;7.33;4.10;;;;;22.60;101570.00;;;;5065701;28;20228;-72
2022/05/17 11:41:49;;;;;;;5.80;3.30;;;;;22.80;101579.00;;;;5070046;28;20243;-73
2022/05/17 11:44:42;;;;;;;6.00;3.50;;;;;22.80;101577.00;;;;5064315;28;20251;-73
2022/05/17 11:47:32;;;;;;;8.10;3.70;;;;;22.90;101568.00;;;;5062807;28;20227;-74
2022/05/17 11:50:42;;;;;;;5.60;3.33;;;;;23.10;101581.00;;;;5064636;28;20224;-73
2022/05/17 11:53:49;;;;;;;8.53;4.53;;;;;23.10;101574.00;;;;5059204;28;20278;-72
2022/05/17 11:56:38;;;;;;;6.30;3.23;;;;;23.20;101580.00;;;;5043882;28;20210;-74
2022/05/17 11:59:45;;;;;;;5.17;3.83;;;;;23.10;101571.00;;;;5036734;28;20241;-73
2022/05/17 12:02:42;;;;;;;7.40;3.70;;;;;23.20;101572.00;;;;5038920;28;20830;-73
2022/05/17 12:06:07;;;;;;;6.17;3.40;;;;;23.10;101570.00;;;;5038074;28;21391;-72
2022/05/17 12:08:55;;;;;;;5.77;3.23;;;;;22.80;101569.00;;;;5032164;28;20218;-73
2022/05/17 12:11:53;;;;;;;6.00;4.20;;;;;22.80;101567.00;;;;5038025;28;20216;-71
2022/05/17 12:14:46;;;;;;;8.70;4.27;;;;;22.60;101561.00;;;;5039801;28;20699;-73
2022/05/17 12:17:47;;;;;;;5.27;3.67;;;;;22.40;101564.00;;;;5041831;28;21015;-71
2022/05/17 12:20:44;;;;;;;9.20;3.70;;;;;22.30;101561.00;;;;5034190;28;20220;-71
2022/05/17 12:23:35;;;;;;;6.17;4.03;;;;;22.20;101568.00;;;;5037585;28;20208;-70
2022/05/17 12:26:29;;;;;;;6.40;4.10;;;;;22.20;101564.00;;;;5031760;28;20241;-72
2022/05/17 12:32:21;;;;;;;11.83;5.23;;;;;22.10;101551.00;;;;5037578;28;20209;-70
2022/05/17 12:35:09;;;;;;;10.17;4.40;;;;;22.20;101559.00;;;;5031023;28;20311;-71
2022/05/17 12:37:57;;;;;;;7.57;4.50;;;;;22.10;101557.00;;;;5039757;28;20846;-74
2022/05/17 12:43:49;;;;;;;8.17;4.90;;;;;22.00;101556.00;;;;5040281;28;20346;-73
2022/05/17 12:46:37;;;;;;;9.77;4.43;;;;;22.10;101556.00;;;;5040574;28;20215;-70
2022/05/17 12:49:27;;;;;;;12.70;4.87;;;;;22.10;101560.00;;;;5049221;28;20216;-72
2022/05/17 12:52:27;;;;;;;6.17;4.00;;;;;22.30;101545.00;;;;5035042;28;20296;-72
2022/05/17 12:55:20;;;;;;;7.53;4.57;;;;;22.50;101541.00;;;;5032145;28;20253;-73
2022/05/17 12:58:11;;;;;;;12.53;5.20;;;;;22.50;101544.00;;;;5032304;28;20260;-75
2022/05/17 13:01:00;;;;;;;8.93;4.60;;;;;22.60;101540.00;;;;5030442;28;20245;-74
2022/05/17 13:03:46;;;;;;;8.63;4.40;;;;;22.50;101500.00;;;;5033879;28;20690;-72
2022/05/17 13:06:35;;;;;;;7.97;4.70;;;;;22.30;101540.00;;;;5046541;28;20235;-71
2022/05/17 13:09:24;;;;;;;9.53;4.57;;;;;22.40;101541.00;;;;5046271;28;20267;-71
2022/05/17 13:12:14;;;;;;;8.33;4.63;;;;;22.50;101538.00;;;;5046457;28;20706;-71
2022/05/17 13:15:05;;;;;;;8.43;4.33;;;;;22.60;101528.00;;;;5041702;28;20232;-70
2022/05/17 13:17:57;;;;;;;7.47;3.90;;;;;22.70;101520.00;;;;5040197;28;20213;-71
2022/05/17 13:20:48;;;;;;;4.80;3.67;;;;;22.80;101528.00;;;;5039188;28;20282;-72
2022/05/17 13:23:34;;;;;;;7.97;4.17;;;;;22.80;101515.00;;;;5044896;28;20912;-71
2022/05/17 13:26:26;;;;;;;8.03;3.87;;;;;23.10;101518.00;;;;5044943;28;20267;-69
2022/05/17 13:29:27;;;;;;;9.63;3.70;;;;;23.20;101518.00;;;;5044773;28;20212;-71
2022/05/17 13:32:20;;;;;;;10.03;3.80;;;;;23.40;101510.00;;;;5045184;28;20209;-70
2022/05/17 13:35:22;;;;;;;8.53;4.00;;;;;23.40;101506.00;;;;5044768;28;20236;-71
2022/05/17 13:38:23;;;;;;;8.67;4.20;;;;;23.70;101508.00;;;;5042023;28;20254;-73
2022/05/17 13:41:19;;;;;;;5.27;3.13;;;;;23.80;101509.00;;;;5041969;28;20237;-72
2022/05/17 13:44:07;;;;;;;8.30;3.27;;;;;23.80;101508.00;;;;5040885;28;20291;-73
2022/05/17 13:46:53;;;;;;;8.30;3.47;;;;;23.80;101510.00;;;;5027759;28;20212;-75
2022/05/17 13:49:41;;;;;;;6.83;3.70;;;;;23.90;101515.00;;;;5033030;28;20217;-74
2022/05/17 13:52:34;;;;;;;5.37;3.37;;;;;24.20;101513.00;;;;5043569;28;20311;-72
2022/05/17 13:55:25;;;;;;;5.77;3.63;;;;;24.30;101507.00;;;;5042784;28;20228;-72
2022/05/17 13:58:14;;;;;;;7.07;4.20;;;;;24.30;101506.00;;;;5040983;28;20356;-70
2022/05/17 14:01:09;;;;;;;6.47;4.03;;;;;24.10;101504.00;;;;5040625;28;20609;-71
2022/05/17 14:04:14;;;;;;;7.50;3.67;;;;;24.30;101513.00;;;;5040551;28;20205;-71
2022/05/17 14:07:03;;;;;;;8.73;3.93;;;;;24.00;101508.00;;;;5042145;28;20236;-72
2022/05/17 14:13:26;;;;;;;4.93;3.30;;;;;23.40;101506.00;;;;5035615;28;20303;-72
2022/05/17 14:16:20;;;;;;;6.60;3.17;;;;;23.20;101496.00;;;;5036726;28;20682;-73
2022/05/17 14:19:10;;;;;;;7.10;3.27;;;;;23.10;101502.00;;;;5041743;28;20280;-73